createdAt,value
2017-04-01T00:02:03.313Z,12.7
2017-04-01T00:07:02.722Z,12.7
2017-04-01T00:12:03.336Z,12.5
2017-04-01T00:17:02.949Z,12.5
2017-04-01T00:22:03.481Z,12.5
2017-04-01T00:27:02.963Z,12.4
2017-04-01T00:32:03.006Z,12.2
2017-04-01T00:37:03.078Z,12.2
2017-04-01T00:42:03.572Z,12.3
2017-04-01T00:47:03.338Z,12.2
2017-04-01T00:52:02.829Z,12.1
2017-04-01T00:57:03.038Z,12.0
2017-04-01T01:02:03.425Z,12.0
2017-04-01T01:07:03.120Z,12.1
2017-04-01T01:12:02.681Z,12.1
2017-04-01T01:17:03.393Z,12.1
2017-04-01T01:22:02.655Z,12.2
2017-04-01T01:27:03.177Z,12.2
2017-04-01T01:32:02.787Z,12.2
2017-04-01T01:37:03.456Z,12.2
2017-04-01T01:42:02.931Z,12.3
2017-04-01T01:47:03.771Z,12.2
2017-04-01T01:52:03.061Z,12.2
2017-04-01T01:57:02.612Z,12.2
2017-04-01T02:02:03.198Z,12.1
2017-04-01T02:07:03.393Z,12.1
2017-04-01T02:12:02.749Z,12.0
2017-04-01T02:17:03.184Z,12.0
2017-04-01T02:22:03.382Z,11.9
2017-04-01T02:27:03.043Z,11.9
2017-04-01T02:32:03.576Z,11.9
2017-04-01T02:37:03.253Z,11.8
2017-04-01T02:42:03.466Z,11.7
2017-04-01T02:47:02.730Z,11.7
2017-04-01T02:52:03.075Z,11.7
2017-04-01T02:57:03.413Z,11.7
2017-04-01T03:02:02.757Z,11.6
2017-04-01T03:07:03.082Z,11.6
2017-04-01T03:12:02.817Z,11.5
2017-04-01T03:17:03.217Z,11.2
2017-04-01T03:22:03.432Z,11.1
2017-04-01T03:27:02.939Z,11.0
2017-04-01T03:32:03.550Z,11.2
2017-04-01T03:37:03.609Z,11.2
2017-04-01T03:42:03.036Z,11.3
2017-04-01T03:47:03.276Z,11.2
2017-04-01T03:52:03.588Z,11.3
2017-04-01T03:57:02.848Z,11.2
2017-04-01T04:02:03.270Z,11.2
2017-04-01T04:07:03.568Z,11.2
2017-04-01T04:12:03.183Z,11.2
2017-04-01T04:17:03.535Z,11.2
2017-04-01T04:22:03.157Z,11.1
2017-04-01T04:27:03.600Z,11.1
2017-04-01T04:32:10.221Z,11.2
2017-04-01T04:37:02.844Z,11.2
2017-04-01T04:42:03.074Z,11.1
2017-04-01T04:47:03.692Z,11.1
2017-04-01T04:52:02.791Z,11.1
2017-04-01T04:57:02.763Z,11.1
2017-04-01T05:02:13.625Z,10.9
2017-04-01T05:07:03.604Z,10.9
2017-04-01T05:12:03.559Z,11.0
2017-04-01T05:17:17.864Z,10.9
2017-04-01T05:22:03.300Z,10.9
2017-04-01T05:27:03.130Z,10.8
2017-04-01T05:32:13.698Z,10.8
2017-04-01T05:37:03.592Z,10.6
2017-04-01T05:42:02.976Z,10.7
2017-04-01T05:47:17.560Z,11.0
2017-04-01T05:52:02.932Z,10.9
2017-04-01T05:57:03.470Z,11.1
2017-04-01T06:02:17.396Z,11.2
2017-04-01T06:07:03.204Z,11.4
2017-04-01T06:12:03.517Z,11.6
2017-04-01T06:17:13.830Z,11.6
2017-04-01T06:22:03.147Z,11.8
2017-04-01T06:27:03.426Z,12.0
2017-04-01T06:32:13.586Z,12.1
2017-04-01T06:37:02.710Z,12.3
2017-04-01T06:42:02.831Z,12.5
2017-04-01T06:47:16.422Z,12.7
2017-04-01T06:52:03.101Z,12.8
2017-04-01T06:57:03.766Z,12.9
2017-04-01T07:02:13.354Z,13.3
2017-04-01T07:07:02.825Z,13.2
2017-04-01T07:12:02.993Z,13.5
2017-04-01T07:17:13.887Z,14.3
2017-04-01T07:22:03.186Z,14.2
2017-04-01T07:27:03.559Z,15.3
2017-04-01T07:32:13.661Z,15.6
2017-04-01T07:37:03.405Z,15.5
2017-04-01T07:42:02.863Z,16.1
2017-04-01T07:47:13.962Z,16.7
2017-04-01T07:52:03.017Z,17.6
2017-04-01T07:57:03.472Z,17.6
2017-04-01T08:02:17.177Z,18.6
2017-04-01T08:07:02.677Z,18.5
2017-04-01T08:12:02.801Z,19.0
2017-04-01T08:17:11.423Z,19.2
2017-04-01T08:22:02.885Z,19.8
2017-04-01T08:27:02.810Z,19.7
2017-04-01T08:32:17.684Z,20.0
2017-04-01T08:37:02.975Z,20.0
2017-04-01T08:42:03.125Z,20.1
2017-04-01T08:47:13.311Z,20.3
2017-04-01T08:52:03.559Z,20.4
2017-04-01T08:57:03.018Z,20.6
2017-04-01T09:02:17.865Z,20.8
2017-04-01T09:07:03.414Z,20.7
2017-04-01T09:12:03.502Z,20.8
2017-04-01T09:17:13.311Z,21.0
2017-04-01T09:22:03.008Z,21.2
2017-04-01T09:27:02.862Z,21.2
2017-04-01T09:32:16.926Z,21.6
2017-04-01T09:37:02.802Z,21.9
2017-04-01T09:42:02.737Z,22.4
2017-04-01T09:47:17.597Z,22.9
2017-04-01T09:52:03.047Z,23.2
2017-04-01T09:57:02.716Z,23.5
2017-04-01T10:02:13.310Z,24.3
2017-04-01T10:07:02.890Z,24.2
2017-04-01T10:12:03.087Z,24.3
2017-04-01T10:17:17.505Z,24.3
2017-04-01T10:22:03.514Z,24.8
2017-04-01T10:27:02.906Z,25.0
2017-04-01T10:32:17.305Z,25.0
2017-04-01T10:37:02.870Z,25.0
2017-04-01T10:42:03.333Z,24.8
2017-04-01T10:47:17.716Z,24.6
2017-04-01T10:52:03.224Z,24.4
2017-04-01T10:57:03.256Z,24.4
2017-04-01T11:02:13.646Z,24.4
2017-04-01T11:07:03.163Z,24.8
2017-04-01T11:12:02.811Z,24.7
2017-04-01T11:17:14.185Z,24.0
2017-04-01T11:22:03.590Z,24.0
2017-04-01T11:27:03.643Z,24.0
2017-04-01T11:32:17.552Z,24.0
2017-04-01T11:37:03.099Z,24.4
2017-04-01T11:42:03.010Z,24.9
2017-04-01T11:47:17.219Z,25.0
2017-04-01T11:52:02.966Z,25.0
2017-04-01T11:57:03.497Z,25.1
2017-04-01T12:02:12.657Z,25.0
2017-04-01T12:07:03.169Z,24.9
2017-04-01T12:12:02.740Z,24.8
2017-04-01T12:17:04.301Z,25.6
2017-04-01T12:22:02.940Z,25.7
2017-04-01T12:27:02.963Z,25.4
2017-04-01T12:32:18.645Z,25.4
2017-04-01T12:37:03.358Z,25.4
2017-04-01T12:42:02.581Z,26.4
2017-04-01T12:47:06.620Z,26.9
2017-04-01T12:52:03.637Z,27.4
2017-04-01T12:57:03.640Z,27.3
2017-04-01T13:02:15.730Z,27.4
2017-04-01T13:07:03.021Z,27.0
2017-04-01T13:12:02.905Z,26.9
2017-04-01T13:17:18.439Z,27.0
2017-04-01T13:22:03.133Z,27.0
2017-04-01T13:27:02.852Z,27.1
2017-04-01T13:32:13.120Z,27.5
2017-04-01T13:37:03.636Z,27.4
2017-04-01T13:42:03.586Z,26.5
2017-04-01T13:47:13.566Z,26.0
2017-04-01T13:52:02.868Z,25.1
2017-04-01T13:57:03.240Z,25.1
2017-04-01T14:02:13.433Z,24.5
2017-04-01T14:07:03.119Z,24.5
2017-04-01T14:12:02.965Z,24.5
2017-04-01T14:17:22.979Z,25.0
2017-04-01T14:22:03.134Z,24.3
2017-04-01T14:27:03.385Z,24.2
2017-04-01T14:32:13.770Z,24.0
2017-04-01T14:37:03.173Z,23.4
2017-04-01T14:42:03.419Z,23.5
2017-04-01T14:47:17.726Z,23.0
2017-04-01T14:52:03.184Z,23.0
2017-04-01T14:57:02.990Z,22.5
2017-04-01T15:07:02.900Z,21.9
2017-04-01T15:12:03.181Z,21.8
2017-04-01T15:17:13.722Z,21.6
2017-04-01T15:22:02.962Z,21.3
2017-04-01T15:27:02.794Z,21.0
2017-04-01T15:32:13.627Z,20.8
2017-04-01T15:37:03.195Z,20.8
2017-04-01T15:42:03.111Z,29.4
2017-04-01T15:47:13.527Z,32.2
2017-04-01T15:52:02.964Z,33.9
2017-04-01T15:57:03.116Z,33.8
2017-04-01T16:02:11.550Z,36.0
2017-04-01T16:07:02.918Z,36.0
2017-04-01T16:12:03.387Z,36.0
2017-04-01T16:17:13.683Z,35.7
2017-04-01T16:22:03.251Z,35.7
2017-04-01T16:27:03.414Z,34.9
2017-04-01T16:32:13.524Z,35.6
2017-04-01T16:37:03.483Z,35.6
2017-04-01T16:42:03.487Z,35.2
2017-04-01T16:47:14.209Z,34.0
2017-04-01T16:52:02.858Z,32.4
2017-04-01T16:57:02.754Z,30.8
2017-04-01T17:02:22.631Z,25.5
2017-04-01T17:07:02.840Z,25.4
2017-04-01T17:12:03.625Z,22.7
2017-04-01T17:17:13.435Z,19.7
2017-04-01T17:22:03.210Z,19.6
2017-04-01T17:27:03.107Z,18.0
2017-04-01T17:32:13.194Z,17.4
2017-04-01T17:37:02.794Z,17.4
2017-04-01T17:42:03.529Z,16.4
2017-04-01T17:47:22.549Z,16.0
2017-04-01T17:52:02.855Z,15.7
2017-04-01T17:57:03.329Z,15.6
2017-04-01T18:02:11.693Z,15.4
2017-04-01T18:07:03.506Z,15.2
2017-04-01T18:12:03.116Z,15.1
2017-04-01T18:17:14.050Z,15.0
2017-04-01T18:22:02.783Z,14.9
2017-04-01T18:27:03.657Z,14.7
2017-04-01T18:32:10.399Z,14.4
2017-04-01T18:37:02.897Z,14.4
2017-04-01T18:42:03.189Z,14.3
2017-04-01T18:47:03.458Z,14.2
2017-04-01T18:52:02.814Z,14.1
2017-04-01T18:57:03.415Z,14.1
2017-04-01T19:02:02.698Z,13.9
2017-04-01T19:07:02.708Z,13.9
2017-04-01T19:12:02.901Z,13.7
2017-04-01T19:17:03.032Z,13.6
2017-04-01T19:22:03.595Z,13.6
2017-04-01T19:27:03.280Z,13.6
2017-04-01T19:32:03.195Z,13.5
2017-04-01T19:37:03.457Z,13.5
2017-04-01T19:42:03.206Z,13.5
2017-04-01T19:47:03.559Z,13.5
2017-04-01T19:52:03.223Z,13.5
2017-04-01T19:57:03.049Z,13.5
2017-04-01T20:02:02.756Z,13.5
2017-04-01T20:07:03.146Z,13.4
2017-04-01T20:12:03.337Z,13.3
2017-04-01T20:17:03.439Z,13.3
2017-04-01T20:22:03.300Z,13.2
2017-04-01T20:27:02.888Z,13.2
2017-04-01T20:32:05.362Z,13.2
2017-04-01T20:37:02.863Z,13.2
2017-04-01T20:42:03.128Z,13.1
2017-04-01T20:47:04.093Z,13.1
2017-04-01T20:52:03.106Z,13.1
2017-04-01T20:57:03.539Z,13.1
2017-04-01T21:02:03.081Z,13.0
2017-04-01T21:07:03.562Z,13.0
2017-04-01T21:12:02.851Z,13.0
2017-04-01T21:17:03.344Z,13.0
2017-04-01T21:22:03.403Z,13.0
2017-04-01T21:27:02.825Z,13.0
2017-04-01T21:32:04.533Z,12.9
2017-04-01T21:37:03.189Z,12.8
2017-04-01T21:42:03.266Z,12.8
2017-04-01T21:47:02.953Z,12.8
2017-04-01T21:52:03.008Z,12.7
2017-04-01T21:57:03.534Z,12.8
2017-04-01T22:02:03.149Z,12.7
2017-04-01T22:07:03.180Z,12.7
2017-04-01T22:12:02.783Z,12.7
2017-04-01T22:22:03.685Z,12.8
2017-04-01T22:27:03.020Z,12.7
2017-04-01T22:32:03.429Z,12.8
2017-04-01T22:37:02.987Z,12.9
2017-04-01T22:42:03.512Z,12.9
2017-04-01T22:47:03.336Z,12.9
2017-04-01T22:52:02.749Z,13.0
2017-04-01T22:57:03.288Z,13.0
2017-04-01T23:02:03.209Z,12.9
2017-04-01T23:07:02.803Z,12.9
2017-04-01T23:12:03.432Z,12.9
2017-04-01T23:17:03.075Z,12.9
2017-04-01T23:22:03.282Z,12.9
2017-04-01T23:27:02.716Z,12.8
2017-04-01T23:32:03.214Z,12.7
2017-04-01T23:37:02.651Z,12.7
2017-04-01T23:42:03.201Z,12.7
2017-04-01T23:47:03.728Z,12.6
2017-04-01T23:52:02.893Z,12.5
2017-04-01T23:57:03.495Z,12.5
